Ribeira, Brazil
Current Conditions -  °F | °C
As of 12:00 PM on Saturday 20 Dec 2014 (Local Time) from SBBI Reporting Station
Few Clouds Few Clouds  
Wind Chill: 81°   Ceiling: Unl
Heat Index: 83°   Visibility: 6mi
Dew Point: 66°   Wind: 9mph
Humidity: 61%   Direction: 340°NNW
Pressure: 29.94"   Gusts: NA
Location:  24.66°S, 49.01°W
Report Text: SBBI 201400Z 34008KT 9999 FEW020 27/19 Q1014
Loading
Personal Weather Stations






























Interactive Weather Map New forecast layout! Learn more

10-Day Weather Forecast

Advertisements
Track Severe Weather on mobile